Station Historical Data
Daily Summary for February 24, 2013 Units:  Both    English   Metric
« Previous Day
Next Day »
Daily Weekly Monthly Yearly Custom
  High: Low: Average:
Temperature: 55.9 °F /  13.3 °C 31.6 °F /  -0.2 °C 42.8 °F /  6 °C
Dew Point: 33.1 °F /  0.6 °C 26.7 °F /  -2.9 °C 29.4 °F /  -1.4 °C
Humidity: 85% 33% 62%
Wind Speed: 11.0mph /  17.7km/h - 3.7mph /  6km/h
Wind Gust: 12.0mph /  19.3km/h - -
Wind- - East
Pressure: 30.11 in /  1019.5 hPa 29.96 in /  1014.4 hPa -
Precipitation: 0.00 in /  0 mm    
Historical Graphs
 
 
Tabular Data for February 24, 2013
Time Temperature Dew Point Pressure Wind Wind Speed Wind Gust Humidity Rainfall Rate (Hourly) Conditions
00:00 37.7 °F /  3.2 °C 30.8 °F /  -0.7 °C 29.98in /  1015.1hPa NW 2.0mph /  3.2km/h 3.0mph /  4.8km/h 76% 0.00in /  0mm
00:05 37.7 °F /  3.2 °C 31.1 °F /  -0.5 °C 29.98in /  1015.1hPa Calm   1.0mph /  1.6km/h 77% 0.00in /  0mm
00:10 37.9 °F /  3.3 °C 31.0 °F /  -0.6 °C 29.98in /  1015.1hPa NW 1.0mph /  1.6km/h 1.0mph /  1.6km/h 76% 0.00in /  0mm
00:15 38.1 °F /  3.4 °C 30.9 °F /  -0.6 °C 29.98in /  1015.1hPa NNW 1.0mph /  1.6km/h 1.0mph /  1.6km/h 75% 0.00in /  0mm
00:20 38.1 °F /  3.4 °C 30.9 °F /  -0.6 °C 29.98in /  1015.1hPa NNW 1.0mph /  1.6km/h 1.0mph /  1.6km/h 75% 0.00in /  0mm
00:25 38.0 °F /  3.3 °C 30.8 °F /  -0.7 °C 29.98in /  1015.1hPa Calm   1.0mph /  1.6km/h 75% 0.00in /  0mm
00:30 37.7 °F /  3.2 °C 30.8 °F /  -0.7 °C 29.98in /  1015.1hPa Calm   1.0mph /  1.6km/h 76% 0.00in /  0mm
00:35 37.6 °F /  3.1 °C 30.7 °F /  -0.7 °C 29.98in /  1015.1hPa NNW 1.0mph /  1.6km/h 2.0mph /  3.2km/h 76% 0.00in /  0mm
00:40 37.7 °F /  3.2 °C 30.8 °F /  -0.7 °C 29.98in /  1015.1hPa NNW 2.0mph /  3.2km/h 2.0mph /  3.2km/h 76% 0.00in /  0mm
00:45 37.5 °F /  3.1 °C 30.6 °F /  -0.8 °C 29.98in /  1015.1hPa NNW 3.0mph /  4.8km/h 3.0mph /  4.8km/h 76% 0.00in /  0mm
00:50 37.2 °F /  2.9 °C 30.4 °F /  -0.9 °C 29.98in /  1015.1hPa NNW 2.0mph /  3.2km/h 3.0mph /  4.8km/h 76% 0.00in /  0mm
00:55 36.9 °F /  2.7 °C 30.4 °F /  -0.9 °C 29.98in /  1015.1hPa NW 4.0mph /  6.4km/h 4.0mph /  6.4km/h 77% 0.00in /  0mm
01:00 36.7 °F /  2.6 °C 30.2 °F /  -1 °C 29.98in /  1015.1hPa NW 2.0mph /  3.2km/h 5.0mph /  8km/h 77% 0.00in /  0mm
01:05 36.5 °F /  2.5 °C 30.3 °F /  -0.9 °C 29.98in /  1015.1hPa NNW 3.0mph /  4.8km/h 4.0mph /  6.4km/h 78% 0.00in /  0mm
01:10 36.5 °F /  2.5 °C 30.3 °F /  -0.9 °C 29.99in /  1015.5hPa NNW 4.0mph /  6.4km/h 4.0mph /  6.4km/h 78% 0.00in /  0mm
01:15 36.4 °F /  2.4 °C 30.2 °F /  -1 °C 29.98in /  1015.1hPa NNW 2.0mph /  3.2km/h 4.0mph /  6.4km/h 78% 0.00in /  0mm
01:20 36.2 °F /  2.3 °C 30.3 °F /  -0.9 °C 29.98in /  1015.1hPa NW 2.0mph /  3.2km/h 4.0mph /  6.4km/h 79% 0.00in /  0mm
01:25 36.2 °F /  2.3 °C 30.3 °F /  -0.9 °C 29.98in /  1015.1hPa NNW 2.0mph /  3.2km/h 4.0mph /  6.4km/h 79% 0.00in /  0mm
01:30 35.9 °F /  2.2 °C 30.0 °F /  -1.1 °C 29.99in /  1015.5hPa NNW 3.0mph /  4.8km/h 4.0mph /  6.4km/h 79% 0.00in /  0mm
01:35 35.9 °F /  2.2 °C 30.3 °F /  -0.9 °C 29.99in /  1015.5hPa NNW 3.0mph /  4.8km/h 5.0mph /  8km/h 80% 0.00in /  0mm
01:40 36.0 °F /  2.2 °C 30.1 °F /  -1.1 °C 29.99in /  1015.5hPa NNW 3.0mph /  4.8km/h 4.0mph /  6.4km/h 79% 0.00in /  0mm
01:45 36.1 °F /  2.3 °C 30.2 °F /  -1 °C 29.99in /  1015.5hPa NNW 3.0mph /  4.8km/h 5.0mph /  8km/h 79% 0.00in /  0mm
01:51 35.9 °F /  2.2 °C 30.0 °F /  -1.1 °C 29.99in /  1015.5hPa NNW 2.0mph /  3.2km/h 4.0mph /  6.4km/h 79% 0.00in /  0mm
01:56 35.8 °F /  2.1 °C 29.9 °F /  -1.2 °C 29.99in /  1015.5hPa NNW 3.0mph /  4.8km/h 4.0mph /  6.4km/h 79% 0.00in /  0mm
02:01 35.7 °F /  2.1 °C 29.8 °F /  -1.2 °C 29.99in /  1015.5hPa NNW 3.0mph /  4.8km/h 3.0mph /  4.8km/h 79% 0.00in /  0mm
02:06 35.7 °F /  2.1 °C 29.8 °F /  -1.2 °C 29.99in /  1015.5hPa NNW 5.0mph /  8km/h 6.0mph /  9.7km/h 79% 0.00in /  0mm
02:11 35.6 °F /  2 °C 30.0 °F /  -1.1 °C 29.99in /  1015.5hPa NNW 3.0mph /  4.8km/h 5.0mph /  8km/h 80% 0.00in /  0mm
02:16 35.4 °F /  1.9 °C 29.9 °F /  -1.2 °C 29.99in /  1015.5hPa NNW 3.0mph /  4.8km/h 5.0mph /  8km/h 80% 0.00in /  0mm
02:21 35.4 °F /  1.9 °C 29.9 °F /  -1.2 °C 29.99in /  1015.5hPa NNW 1.0mph /  1.6km/h 4.0mph /  6.4km/h 80% 0.00in /  0mm
02:26 35.2 °F /  1.8 °C 29.7 °F /  -1.3 °C 29.99in /  1015.5hPa NNW 3.0mph /  4.8km/h 5.0mph /  8km/h 80% 0.00in /  0mm
02:31 35.1 °F /  1.7 °C 29.6 °F /  -1.3 °C 29.99in /  1015.5hPa North 3.0mph /  4.8km/h 5.0mph /  8km/h 80% 0.00in /  0mm
02:36 35.1 °F /  1.7 °C 29.9 °F /  -1.2 °C 29.99in /  1015.5hPa North 1.0mph /  1.6km/h 4.0mph /  6.4km/h 81% 0.00in /  0mm
02:41 34.9 °F /  1.6 °C 29.7 °F /  -1.3 °C 29.99in /  1015.5hPa North 2.0mph /  3.2km/h 5.0mph /  8km/h 81% 0.00in /  0mm
02:46 35.0 °F /  1.7 °C 29.8 °F /  -1.2 °C 29.98in /  1015.1hPa North 4.0mph /  6.4km/h 7.0mph /  11.3km/h 81% 0.00in /  0mm
02:51 35.0 °F /  1.7 °C 29.8 °F /  -1.2 °C 29.98in /  1015.1hPa NNE 2.0mph /  3.2km/h 5.0mph /  8km/h 81% 0.00in /  0mm
02:56 34.9 °F /  1.6 °C 29.7 °F /  -1.3 °C 29.98in /  1015.1hPa NNE 1.0mph /  1.6km/h 4.0mph /  6.4km/h 81% 0.00in /  0mm
03:01 34.7 °F /  1.5 °C 29.5 °F /  -1.4 °C 29.99in /  1015.5hPa North 2.0mph /  3.2km/h 2.0mph /  3.2km/h 81% 0.00in /  0mm
03:06 34.5 °F /  1.4 °C 29.6 °F /  -1.3 °C 29.99in /  1015.5hPa North 2.0mph /  3.2km/h 3.0mph /  4.8km/h 82% 0.00in /  0mm
03:11 34.4 °F /  1.3 °C 29.5 °F /  -1.4 °C 29.99in /  1015.5hPa North 2.0mph /  3.2km/h 5.0mph /  8km/h 82% 0.00in /  0mm
03:16 34.2 °F /  1.2 °C 29.3 °F /  -1.5 °C 29.99in /  1015.5hPa North 2.0mph /  3.2km/h 3.0mph /  4.8km/h 82% 0.00in /  0mm
03:21 34.2 °F /  1.2 °C 29.3 °F /  -1.5 °C 29.99in /  1015.5hPa NE 2.0mph /  3.2km/h 4.0mph /  6.4km/h 82% 0.00in /  0mm
03:26 34.1 °F /  1.2 °C 29.2 °F /  -1.6 °C 29.99in /  1015.5hPa NNE 1.0mph /  1.6km/h 3.0mph /  4.8km/h 82% 0.00in /  0mm
03:31 34.1 °F /  1.2 °C 29.2 °F /  -1.6 °C 29.99in /  1015.5hPa NNE 2.0mph /  3.2km/h 3.0mph /  4.8km/h 82% 0.00in /  0mm
03:36 34.3 °F /  1.3 °C 29.1 °F /  -1.6 °C 29.99in /  1015.5hPa North 1.0mph /  1.6km/h 4.0mph /  6.4km/h 81% 0.00in /  0mm
03:41 34.3 °F /  1.3 °C 29.1 °F /  -1.6 °C 29.99in /  1015.5hPa NNE 1.0mph /  1.6km/h 3.0mph /  4.8km/h 81% 0.00in /  0mm
03:46 34.1 °F /  1.2 °C 28.9 °F /  -1.7 °C 29.99in /  1015.5hPa North 1.0mph /  1.6km/h 3.0mph /  4.8km/h 81% 0.00in /  0mm
03:51 33.9 °F /  1.1 °C 28.7 °F /  -1.8 °C 29.99in /  1015.5hPa North 2.0mph /  3.2km/h 2.0mph /  3.2km/h 81% 0.00in /  0mm
03:56 33.7 °F /  0.9 °C 28.8 °F /  -1.8 °C 29.99in /  1015.5hPa North 3.0mph /  4.8km/h 3.0mph /  4.8km/h 82% 0.00in /  0mm
04:01 33.7 °F /  0.9 °C 28.8 °F /  -1.8 °C 29.99in /  1015.5hPa North 1.0mph /  1.6km/h 2.0mph /  3.2km/h 82% 0.00in /  0mm
04:06 33.6 °F /  0.9 °C 28.7 °F /  -1.8 °C 29.99in /  1015.5hPa North 2.0mph /  3.2km/h 2.0mph /  3.2km/h 82% 0.00in /  0mm
04:11 33.6 °F /  0.9 °C 28.7 °F /  -1.8 °C 30.00in /  1015.8hPa Calm   3.0mph /  4.8km/h 82% 0.00in /  0mm
04:16 33.5 °F /  0.8 °C 28.6 °F /  -1.9 °C 30.00in /  1015.8hPa North 2.0mph /  3.2km/h 2.0mph /  3.2km/h 82% 0.00in /  0mm
04:21 33.5 °F /  0.8 °C 28.6 °F /  -1.9 °C 30.00in /  1015.8hPa North 2.0mph /  3.2km/h 3.0mph /  4.8km/h 82% 0.00in /  0mm
04:26 33.5 °F /  0.8 °C 28.6 °F /  -1.9 °C 30.00in /  1015.8hPa NNE 2.0mph /  3.2km/h 3.0mph /  4.8km/h 82% 0.00in /  0mm
04:31 33.4 °F /  0.8 °C 28.5 °F /  -1.9 °C 30.00in /  1015.8hPa NNE 2.0mph /  3.2km/h 3.0mph /  4.8km/h 82% 0.00in /  0mm
04:36 33.1 °F /  0.6 °C 28.5 °F /  -1.9 °C 30.00in /  1015.8hPa NNE 3.0mph /  4.8km/h 3.0mph /  4.8km/h 83% 0.00in /  0mm
04:41 33.0 °F /  0.6 °C 28.4 °F /  -2 °C 30.00in /  1015.8hPa NNE 2.0mph /  3.2km/h 2.0mph /  3.2km/h 83% 0.00in /  0mm
04:46 33.0 °F /  0.6 °C 28.4 °F /  -2 °C 30.00in /  1015.8hPa NNE 2.0mph /  3.2km/h 5.0mph /  8km/h 83% 0.00in /  0mm
04:51 33.1 °F /  0.6 °C 28.5 °F /  -1.9 °C 30.00in /  1015.8hPa NE 4.0mph /  6.4km/h 5.0mph /  8km/h 83% 0.00in /  0mm
04:56 33.1 °F /  0.6 °C 28.5 °F /  -1.9 °C 30.00in /  1015.8hPa NNE 3.0mph /  4.8km/h 4.0mph /  6.4km/h 83% 0.00in /  0mm
05:02 32.8 °F /  0.4 °C 28.2 °F /  -2.1 °C 30.01in /  1016.1hPa North 2.0mph /  3.2km/h 4.0mph /  6.4km/h 83% 0.00in /  0mm
05:07 32.6 °F /  0.3 °C 28.3 °F /  -2.1 °C 30.01in /  1016.1hPa North 1.0mph /  1.6km/h 4.0mph /  6.4km/h 84% 0.00in /  0mm
05:12 32.7 °F /  0.4 °C 28.4 °F /  -2 °C 30.01in /  1016.1hPa North 3.0mph /  4.8km/h 4.0mph /  6.4km/h 84% 0.00in /  0mm
05:17 32.7 °F /  0.4 °C 28.4 °F /  -2 °C 30.01in /  1016.1hPa North 2.0mph /  3.2km/h 4.0mph /  6.4km/h 84% 0.00in /  0mm
05:22 32.6 °F /  0.3 °C 28.3 °F /  -2.1 °C 30.01in /  1016.1hPa NNE 4.0mph /  6.4km/h 4.0mph /  6.4km/h 84% 0.00in /  0mm
05:27 32.4 °F /  0.2 °C 28.1 °F /  -2.2 °C 30.01in /  1016.1hPa NNE 4.0mph /  6.4km/h 5.0mph /  8km/h 84% 0.00in /  0mm
05:32 32.4 °F /  0.2 °C 28.4 °F /  -2 °C 30.01in /  1016.1hPa NNE 3.0mph /  4.8km/h 5.0mph /  8km/h 85% 0.00in /  0mm
05:37 32.5 °F /  0.3 °C 28.2 °F /  -2.1 °C 30.01in /  1016.1hPa NNE 4.0mph /  6.4km/h 6.0mph /  9.7km/h 84% 0.00in /  0mm
05:42 32.4 °F /  0.2 °C 28.1 °F /  -2.2 °C 30.01in /  1016.1hPa NNE 3.0mph /  4.8km/h 5.0mph /  8km/h 84% 0.00in /  0mm
05:47 32.4 °F /  0.2 °C 28.1 °F /  -2.2 °C 30.02in /  1016.5hPa NNE 2.0mph /  3.2km/h 4.0mph /  6.4km/h 84% 0.00in /  0mm
05:52 32.4 °F /  0.2 °C 28.1 °F /  -2.2 °C 30.02in /  1016.5hPa NE 3.0mph /  4.8km/h 4.0mph /  6.4km/h 84% 0.00in /  0mm
05:57 32.4 °F /  0.2 °C 28.1 °F /  -2.2 °C 30.02in /  1016.5hPa NNE 1.0mph /  1.6km/h 3.0mph /  4.8km/h 84% 0.00in /  0mm
06:02 32.3 °F /  0.2 °C 28.0 °F /  -2.2 °C 30.02in /  1016.5hPa NNE 2.0mph /  3.2km/h 3.0mph /  4.8km/h 84% 0.00in /  0mm
06:07 32.2 °F /  0.1 °C 27.9 °F /  -2.3 °C 30.02in /  1016.5hPa NNE 2.0mph /  3.2km/h 3.0mph /  4.8km/h 84% 0.00in /  0mm
06:12 32.0 °F /  0 °C 27.7 °F /  -2.4 °C 30.02in /  1016.5hPa NE 3.0mph /  4.8km/h 3.0mph /  4.8km/h 84% 0.00in /  0mm
06:17 31.8 °F /  -0.1 °C 27.8 °F /  -2.3 °C 30.02in /  1016.5hPa NNE 2.0mph /  3.2km/h 4.0mph /  6.4km/h 85% 0.00in /  0mm
06:22 31.8 °F /  -0.1 °C 27.8 °F /  -2.3 °C 30.02in /  1016.5hPa NE 4.0mph /  6.4km/h 5.0mph /  8km/h 85% 0.00in /  0mm
06:27 31.8 °F /  -0.1 °C 27.8 °F /  -2.3 °C 30.03in /  1016.8hPa NE 4.0mph /  6.4km/h 5.0mph /  8km/h 85% 0.00in /  0mm
06:32 31.8 °F /  -0.1 °C 27.8 °F /  -2.3 °C 30.03in /  1016.8hPa NNE 3.0mph /  4.8km/h 5.0mph /  8km/h 85% 0.00in /  0mm
06:37 31.9 °F /  -0.1 °C 27.9 °F /  -2.3 °C 30.04in /  1017.2hPa NNE 2.0mph /  3.2km/h 4.0mph /  6.4km/h 85% 0.00in /  0mm
06:42 31.9 °F /  -0.1 °C 27.6 °F /  -2.4 °C 30.03in /  1016.8hPa NNE 2.0mph /  3.2km/h 4.0mph /  6.4km/h 84% 0.00in /  0mm
06:47 31.9 °F /  -0.1 °C 27.6 °F /  -2.4 °C 30.03in /  1016.8hPa NNE 3.0mph /  4.8km/h 4.0mph /  6.4km/h 84% 0.00in /  0mm
06:52 31.8 °F /  -0.1 °C 27.5 °F /  -2.5 °C 30.04in /  1017.2hPa NNE 2.0mph /  3.2km/h 3.0mph /  4.8km/h 84% 0.00in /  0mm
06:57 31.8 °F /  -0.1 °C 27.5 °F /  -2.5 °C 30.04in /  1017.2hPa North 2.0mph /  3.2km/h 4.0mph /  6.4km/h 84% 0.00in /  0mm
07:02 31.8 °F /  -0.1 °C 27.5 °F /  -2.5 °C 30.04in /  1017.2hPa NNE 1.0mph /  1.6km/h 4.0mph /  6.4km/h 84% 0.00in /  0mm
07:07 31.8 °F /  -0.1 °C 27.5 °F /  -2.5 °C 30.05in /  1017.5hPa NNE 2.0mph /  3.2km/h 3.0mph /  4.8km/h 84% 0.00in /  0mm
07:12 31.8 °F /  -0.1 °C 27.5 °F /  -2.5 °C 30.05in /  1017.5hPa North 2.0mph /  3.2km/h 3.0mph /  4.8km/h 84% 0.00in /  0mm
07:17 31.7 °F /  -0.2 °C 27.4 °F /  -2.6 °C 30.05in /  1017.5hPa North 2.0mph /  3.2km/h 4.0mph /  6.4km/h 84% 0.00in /  0mm
07:22 31.7 °F /  -0.2 °C 27.4 °F /  -2.6 °C 30.04in /  1017.2hPa NNE 2.0mph /  3.2km/h 4.0mph /  6.4km/h 84% 0.00in /  0mm
07:27 31.6 °F /  -0.2 °C 27.3 °F /  -2.6 °C 30.05in /  1017.5hPa North 3.0mph /  4.8km/h 4.0mph /  6.4km/h 84% 0.00in /  0mm
07:32 31.6 °F /  -0.2 °C 27.3 °F /  -2.6 °C 30.05in /  1017.5hPa NNE 1.0mph /  1.6km/h 3.0mph /  4.8km/h 84% 0.00in /  0mm
07:37 31.6 °F /  -0.2 °C 27.3 °F /  -2.6 °C 30.05in /  1017.5hPa NNE 3.0mph /  4.8km/h 4.0mph /  6.4km/h 84% 0.00in /  0mm
07:42 31.8 °F /  -0.1 °C 27.5 °F /  -2.5 °C 30.05in /  1017.5hPa NE 2.0mph /  3.2km/h 7.0mph /  11.3km/h 84% 0.00in /  0mm
07:47 32.0 °F /  0 °C 27.4 °F /  -2.6 °C 30.06in /  1017.8hPa North 2.0mph /  3.2km/h 6.0mph /  9.7km/h 83% 0.00in /  0mm
07:52 32.1 °F /  0.1 °C 27.5 °F /  -2.5 °C 30.06in /  1017.8hPa NNE 4.0mph /  6.4km/h 5.0mph /  8km/h 83% 0.00in /  0mm
07:57 32.3 °F /  0.2 °C 27.4 °F /  -2.6 °C 30.06in /  1017.8hPa NE 4.0mph /  6.4km/h 5.0mph /  8km/h 82% 0.00in /  0mm
08:02 32.5 °F /  0.3 °C 27.6 °F /  -2.4 °C 30.06in /  1017.8hPa NE 2.0mph /  3.2km/h 6.0mph /  9.7km/h 82% 0.00in /  0mm
08:07 32.9 °F /  0.5 °C 28.0 °F /  -2.2 °C 30.06in /  1017.8hPa NE 4.0mph /  6.4km/h 8.0mph /  12.9km/h 82% 0.00in /  0mm
08:12 33.1 °F /  0.6 °C 27.9 °F /  -2.3 °C 30.06in /  1017.8hPa North 3.0mph /  4.8km/h 7.0mph /  11.3km/h 81% 0.00in /  0mm
08:17 33.4 °F /  0.8 °C 28.2 °F /  -2.1 °C 30.07in /  1018.2hPa North 1.0mph /  1.6km/h 8.0mph /  12.9km/h 81% 0.00in /  0mm
08:22 33.7 °F /  0.9 °C 28.2 °F /  -2.1 °C 30.07in /  1018.2hPa NE 5.0mph /  8km/h 9.0mph /  14.5km/h 80% 0.00in /  0mm
08:27 33.9 °F /  1.1 °C 28.4 °F /  -2 °C 30.06in /  1017.8hPa NNE 5.0mph /  8km/h 7.0mph /  11.3km/h 80% 0.00in /  0mm
08:32 34.2 °F /  1.2 °C 28.7 °F /  -1.8 °C 30.06in /  1017.8hPa NE 5.0mph /  8km/h 8.0mph /  12.9km/h 80% 0.00in /  0mm
08:37 34.5 °F /  1.4 °C 28.4 °F /  -2 °C 30.07in /  1018.2hPa NE 7.0mph /  11.3km/h 11.0mph /  17.7km/h 78% 0.00in /  0mm
08:42 34.8 °F /  1.6 °C 28.6 °F /  -1.9 °C 30.07in /  1018.2hPa NNE 7.0mph /  11.3km/h 9.0mph /  14.5km/h 78% 0.00in /  0mm
08:47 35.2 °F /  1.8 °C 29.0 °F /  -1.7 °C 30.07in /  1018.2hPa NNE 5.0mph /  8km/h 8.0mph /  12.9km/h 78% 0.00in /  0mm
08:52 35.5 °F /  1.9 °C 28.7 °F /  -1.8 °C 30.07in /  1018.2hPa NE 8.0mph /  12.9km/h 12.0mph /  19.3km/h 76% 0.00in /  0mm
08:57 35.8 °F /  2.1 °C 28.7 °F /  -1.8 °C 30.08in /  1018.5hPa NE 6.0mph /  9.7km/h 11.0mph /  17.7km/h 75% 0.00in /  0mm
09:03 36.1 °F /  2.3 °C 29.0 °F /  -1.7 °C 30.08in /  1018.5hPa NE 6.0mph /  9.7km/h 9.0mph /  14.5km/h 75% 0.00in /  0mm
09:08 36.3 °F /  2.4 °C 28.5 °F /  -1.9 °C 30.08in /  1018.5hPa NE 8.0mph /  12.9km/h 12.0mph /  19.3km/h 73% 0.00in /  0mm
09:13 36.6 °F /  2.6 °C 28.8 °F /  -1.8 °C 30.09in /  1018.8hPa NE 11.0mph /  17.7km/h 11.0mph /  17.7km/h 73% 0.00in /  0mm
09:18 36.9 °F /  2.7 °C 29.1 °F /  -1.6 °C 30.09in /  1018.8hPa NE 6.0mph /  9.7km/h 10.0mph /  16.1km/h 73% 0.00in /  0mm
09:23 37.3 °F /  2.9 °C 29.1 °F /  -1.6 °C 30.09in /  1018.8hPa NNE 7.0mph /  11.3km/h 8.0mph /  12.9km/h 72% 0.00in /  0mm
09:28 38.0 °F /  3.3 °C 30.5 °F /  -0.8 °C 30.09in /  1018.8hPa NE 3.0mph /  4.8km/h 6.0mph /  9.7km/h 74% 0.00in /  0mm
09:33 38.3 °F /  3.5 °C 29.7 °F /  -1.3 °C 30.09in /  1018.8hPa NE 7.0mph /  11.3km/h 9.0mph /  14.5km/h 71% 0.00in /  0mm
09:38 38.6 °F /  3.7 °C 30.0 °F /  -1.1 °C 30.09in /  1018.8hPa ENE 5.0mph /  8km/h 8.0mph /  12.9km/h 71% 0.00in /  0mm
09:43 38.8 °F /  3.8 °C 29.9 °F /  -1.2 °C 30.10in /  1019.2hPa NNE 5.0mph /  8km/h 8.0mph /  12.9km/h 70% 0.00in /  0mm
09:48 39.1 °F /  3.9 °C 30.5 °F /  -0.8 °C 30.10in /  1019.2hPa NE 5.0mph /  8km/h 8.0mph /  12.9km/h 71% 0.00in /  0mm
09:53 39.4 °F /  4.1 °C 30.1 °F /  -1.1 °C 30.10in /  1019.2hPa NE 5.0mph /  8km/h 8.0mph /  12.9km/h 69% 0.00in /  0mm
09:58 39.5 °F /  4.2 °C 29.8 °F /  -1.2 °C 30.11in /  1019.5hPa NE 5.0mph /  8km/h 9.0mph /  14.5km/h 68% 0.00in /  0mm
10:03 39.9 °F /  4.4 °C 30.9 °F /  -0.6 °C 30.11in /  1019.5hPa NE 7.0mph /  11.3km/h 7.0mph /  11.3km/h 70% 0.00in /  0mm
10:08 40.1 °F /  4.5 °C 30.0 °F /  -1.1 °C 30.11in /  1019.5hPa NNE 7.0mph /  11.3km/h 10.0mph /  16.1km/h 67% 0.00in /  0mm
10:13 40.4 °F /  4.7 °C 31.0 °F /  -0.6 °C 30.11in /  1019.5hPa North 5.0mph /  8km/h 8.0mph /  12.9km/h 69% 0.00in /  0mm
10:19 40.8 °F /  4.9 °C 31.1 °F /  -0.5 °C 30.11in /  1019.5hPa NE 6.0mph /  9.7km/h 7.0mph /  11.3km/h 68% 0.00in /  0mm
10:24 40.9 °F /  4.9 °C 30.4 °F /  -0.9 °C 30.11in /  1019.5hPa NNE 5.0mph /  8km/h 8.0mph /  12.9km/h 66% 0.00in /  0mm
10:29 41.2 °F /  5.1 °C 30.7 °F /  -0.7 °C 30.11in /  1019.5hPa NNE 7.0mph /  11.3km/h 8.0mph /  12.9km/h 66% 0.00in /  0mm
10:34 41.3 °F /  5.2 °C 30.4 °F /  -0.9 °C 30.11in /  1019.5hPa NE 4.0mph /  6.4km/h 8.0mph /  12.9km/h 65% 0.00in /  0mm
10:39 41.6 °F /  5.3 °C 30.7 °F /  -0.7 °C 30.11in /  1019.5hPa North 6.0mph /  9.7km/h 8.0mph /  12.9km/h 65% 0.00in /  0mm
10:44 41.9 °F /  5.5 °C 31.0 °F /  -0.6 °C 30.11in /  1019.5hPa NNE 6.0mph /  9.7km/h 8.0mph /  12.9km/h 65% 0.00in /  0mm
10:49 42.4 °F /  5.8 °C 30.7 °F /  -0.7 °C 30.11in /  1019.5hPa NE 5.0mph /  8km/h 7.0mph /  11.3km/h 63% 0.00in /  0mm
10:54 42.4 °F /  5.8 °C 30.7 °F /  -0.7 °C 30.11in /  1019.5hPa NNE 8.0mph /  12.9km/h 10.0mph /  16.1km/h 63% 0.00in /  0mm
10:59 43.0 °F /  6.1 °C 31.3 °F /  -0.4 °C 30.11in /  1019.5hPa NNE 4.0mph /  6.4km/h 6.0mph /  9.7km/h 63% 0.00in /  0mm
11:04 43.1 °F /  6.2 °C 30.6 °F /  -0.8 °C 30.11in /  1019.5hPa NNE 4.0mph /  6.4km/h 5.0mph /  8km/h 61% 0.00in /  0mm
11:09 43.6 °F /  6.4 °C 31.9 °F /  -0.1 °C 30.11in /  1019.5hPa North 4.0mph /  6.4km/h 8.0mph /  12.9km/h 63% 0.00in /  0mm
11:15 44.0 °F /  6.7 °C 31.4 °F /  -0.3 °C 30.11in /  1019.5hPa NE 5.0mph /  8km/h 7.0mph /  11.3km/h 61% 0.00in /  0mm
11:20 44.5 °F /  6.9 °C 31.1 °F /  -0.5 °C 30.11in /  1019.5hPa NNW 5.0mph /  8km/h 9.0mph /  14.5km/h 59% 0.00in /  0mm
11:25 44.7 °F /  7.1 °C 31.7 °F /  -0.2 °C 30.11in /  1019.5hPa NE 5.0mph /  8km/h 9.0mph /  14.5km/h 60% 0.00in /  0mm
11:30 44.9 °F /  7.2 °C 31.0 °F /  -0.6 °C 30.11in /  1019.5hPa NE 7.0mph /  11.3km/h 9.0mph /  14.5km/h 58% 0.00in /  0mm
11:35 44.9 °F /  7.2 °C 31.5 °F /  -0.3 °C 30.10in /  1019.2hPa North 4.0mph /  6.4km/h 8.0mph /  12.9km/h 59% 0.00in /  0mm
11:40 45.1 °F /  7.3 °C 32.1 °F /  0.1 °C 30.10in /  1019.2hPa ENE 3.0mph /  4.8km/h 8.0mph /  12.9km/h 60% 0.00in /  0mm
11:45 45.6 °F /  7.6 °C 31.7 °F /  -0.2 °C 30.10in /  1019.2hPa North 5.0mph /  8km/h 11.0mph /  17.7km/h 58% 0.00in /  0mm
11:50 45.6 °F /  7.6 °C 31.7 °F /  -0.2 °C 30.10in /  1019.2hPa NNE 6.0mph /  9.7km/h 6.0mph /  9.7km/h 58% 0.00in /  0mm
11:55 45.8 °F /  7.7 °C 31.0 °F /  -0.6 °C 30.10in /  1019.2hPa NNE 6.0mph /  9.7km/h 9.0mph /  14.5km/h 56% 0.00in /  0mm
12:00 46.0 °F /  7.8 °C 31.2 °F /  -0.4 °C 30.10in /  1019.2hPa ENE 5.0mph /  8km/h 8.0mph /  12.9km/h 56% 0.00in /  0mm
12:05 46.3 °F /  7.9 °C 31.9 °F /  -0.1 °C 30.10in /  1019.2hPa North 6.0mph /  9.7km/h 7.0mph /  11.3km/h 57% 0.00in /  0mm
12:10 46.7 °F /  8.2 °C 31.9 °F /  -0.1 °C 30.10in /  1019.2hPa NNE 4.0mph /  6.4km/h 8.0mph /  12.9km/h 56% 0.00in /  0mm
12:15 47.0 °F /  8.3 °C 32.1 °F /  0.1 °C 30.10in /  1019.2hPa NNE 7.0mph /  11.3km/h 8.0mph /  12.9km/h 56% 0.00in /  0mm
12:20 47.2 °F /  8.4 °C 31.0 °F /  -0.6 °C 30.10in /  1019.2hPa NW 1.0mph /  1.6km/h 8.0mph /  12.9km/h 53% 0.00in /  0mm
12:25 47.3 °F /  8.5 °C 31.5 °F /  -0.3 °C 30.10in /  1019.2hPa NE 8.0mph /  12.9km/h 8.0mph /  12.9km/h 54% 0.00in /  0mm
12:30 48.1 °F /  8.9 °C 31.8 °F /  -0.1 °C 30.10in /  1019.2hPa NNE 7.0mph /  11.3km/h 9.0mph /  14.5km/h 53% 0.00in /  0mm
12:35 48.1 °F /  8.9 °C 30.8 °F /  -0.7 °C 30.09in /  1018.8hPa ENE 4.0mph /  6.4km/h 6.0mph /  9.7km/h 51% 0.00in /  0mm
12:40 48.4 °F /  9.1 °C 31.1 °F /  -0.5 °C 30.09in /  1018.8hPa NNW 3.0mph /  4.8km/h 6.0mph /  9.7km/h 51% 0.00in /  0mm
12:45 48.9 °F /  9.4 °C 32.1 °F /  0.1 °C 30.09in /  1018.8hPa NW 2.0mph /  3.2km/h 6.0mph /  9.7km/h 52% 0.00in /  0mm
12:50 49.4 °F /  9.7 °C 32.0 °F /  0 °C 30.09in /  1018.8hPa NE 6.0mph /  9.7km/h 8.0mph /  12.9km/h 51% 0.00in /  0mm
12:55 49.8 °F /  9.9 °C 31.9 °F /  -0.1 °C 30.09in /  1018.8hPa NE 8.0mph /  12.9km/h 8.0mph /  12.9km/h 50% 0.00in /  0mm
13:00 49.8 °F /  9.9 °C 31.4 °F /  -0.3 °C 30.09in /  1018.8hPa ENE 4.0mph /  6.4km/h 7.0mph /  11.3km/h 49% 0.00in /  0mm
13:05 49.3 °F /  9.6 °C 31.0 °F /  -0.6 °C 30.08in /  1018.5hPa NNE 5.0mph /  8km/h 10.0mph /  16.1km/h 49% 0.00in /  0mm
13:10 49.7 °F /  9.8 °C 30.3 °F /  -0.9 °C 30.08in /  1018.5hPa NW 5.0mph /  8km/h 8.0mph /  12.9km/h 47% 0.00in /  0mm
13:15 50.3 °F /  10.2 °C 30.9 °F /  -0.6 °C 30.08in /  1018.5hPa NNW 4.0mph /  6.4km/h 9.0mph /  14.5km/h 47% 0.00in /  0mm
13:20 50.5 °F /  10.3 °C 30.0 °F /  -1.1 °C 30.08in /  1018.5hPa NE 6.0mph /  9.7km/h 10.0mph /  16.1km/h 45% 0.00in /  0mm
13:25 50.3 °F /  10.2 °C 30.3 °F /  -0.9 °C 30.07in /  1018.2hPa ENE 2.0mph /  3.2km/h 5.0mph /  8km/h 46% 0.00in /  0mm
13:30 50.9 °F /  10.5 °C 31.4 °F /  -0.3 °C 30.07in /  1018.2hPa NNW 4.0mph /  6.4km/h 5.0mph /  8km/h 47% 0.00in /  0mm
13:35 51.4 °F /  10.8 °C 30.8 °F /  -0.7 °C 30.07in /  1018.2hPa North 6.0mph /  9.7km/h 8.0mph /  12.9km/h 45% 0.00in /  0mm
13:40 51.5 °F /  10.8 °C 30.3 °F /  -0.9 °C 30.06in /  1017.8hPa North 1.0mph /  1.6km/h 6.0mph /  9.7km/h 44% 0.00in /  0mm
13:46 52.1 °F /  11.2 °C 32.0 °F /  0 °C 30.06in /  1017.8hPa ENE 10.0mph /  16.1km/h 11.0mph /  17.7km/h 46% 0.00in /  0mm
13:50 52.0 °F /  11.1 °C 31.3 °F /  -0.4 °C 30.06in /  1017.8hPa NW 2.0mph /  3.2km/h 8.0mph /  12.9km/h 45% 0.00in /  0mm
13:56 52.2 °F /  11.2 °C 33.1 °F /  0.6 °C 30.06in /  1017.8hPa North 2.0mph /  3.2km/h 6.0mph /  9.7km/h 48% 0.00in /  0mm
14:01 52.6 °F /  11.4 °C 33.0 °F /  0.6 °C 30.06in /  1017.8hPa ENE 4.0mph /  6.4km/h 5.0mph /  8km/h 47% 0.00in /  0mm
14:06 52.9 °F /  11.6 °C 31.0 °F /  -0.6 °C 30.05in /  1017.5hPa East 8.0mph /  12.9km/h 8.0mph /  12.9km/h 43% 0.00in /  0mm
14:11 53.1 °F /  11.7 °C 30.6 °F /  -0.8 °C 30.05in /  1017.5hPa ENE 6.0mph /  9.7km/h 8.0mph /  12.9km/h 42% 0.00in /  0mm
14:16 53.0 °F /  11.7 °C 30.5 °F /  -0.8 °C 30.05in /  1017.5hPa East 2.0mph /  3.2km/h 8.0mph /  12.9km/h 42% 0.00in /  0mm
14:21 53.4 °F /  11.9 °C 31.5 °F /  -0.3 °C 30.05in /  1017.5hPa ENE 5.0mph /  8km/h 6.0mph /  9.7km/h 43% 0.00in /  0mm
14:26 53.4 °F /  11.9 °C 29.7 °F /  -1.3 °C 30.05in /  1017.5hPa ENE 5.0mph /  8km/h 7.0mph /  11.3km/h 40% 0.00in /  0mm
14:31 53.5 °F /  11.9 °C 30.4 °F /  -0.9 °C 30.05in /  1017.5hPa East 7.0mph /  11.3km/h 9.0mph /  14.5km/h 41% 0.00in /  0mm
14:36 53.8 °F /  12.1 °C 30.1 °F /  -1.1 °C 30.05in /  1017.5hPa NE 1.0mph /  1.6km/h 5.0mph /  8km/h 40% 0.00in /  0mm
14:41 53.9 °F /  12.2 °C 30.1 °F /  -1.1 °C 30.05in /  1017.5hPa ESE 2.0mph /  3.2km/h 5.0mph /  8km/h 40% 0.00in /  0mm
14:46 54.2 °F /  12.3 °C 30.4 °F /  -0.9 °C 30.05in /  1017.5hPa NE 6.0mph /  9.7km/h 7.0mph /  11.3km/h 40% 0.00in /  0mm
14:51 54.4 °F /  12.4 °C 30.0 °F /  -1.1 °C 30.05in /  1017.5hPa ENE 8.0mph /  12.9km/h 8.0mph /  12.9km/h 39% 0.00in /  0mm
14:56 54.6 °F /  12.6 °C 30.8 °F /  -0.7 °C 30.05in /  1017.5hPa NE 3.0mph /  4.8km/h 8.0mph /  12.9km/h 40% 0.00in /  0mm
15:01 54.5 °F /  12.5 °C 30.7 °F /  -0.7 °C 30.04in /  1017.2hPa ENE 7.0mph /  11.3km/h 7.0mph /  11.3km/h 40% 0.00in /  0mm
15:06 54.9 °F /  12.7 °C 29.8 °F /  -1.2 °C 30.04in /  1017.2hPa NNE 4.0mph /  6.4km/h 8.0mph /  12.9km/h 38% 0.00in /  0mm
15:11 54.9 °F /  12.7 °C 29.1 °F /  -1.6 °C 30.04in /  1017.2hPa ENE 9.0mph /  14.5km/h 9.0mph /  14.5km/h 37% 0.00in /  0mm
15:16 54.5 °F /  12.5 °C 28.8 °F /  -1.8 °C 30.04in /  1017.2hPa East 3.0mph /  4.8km/h 5.0mph /  8km/h 37% 0.00in /  0mm
15:21 54.8 °F /  12.7 °C 31.0 °F /  -0.6 °C 30.04in /  1017.2hPa NE 9.0mph /  14.5km/h 9.0mph /  14.5km/h 40% 0.00in /  0mm
15:26 55.1 °F /  12.8 °C 30.6 °F /  -0.8 °C 30.03in /  1016.8hPa ENE 5.0mph /  8km/h 6.0mph /  9.7km/h 39% 0.00in /  0mm
15:31 55.0 °F /  12.8 °C 29.9 °F /  -1.2 °C 30.03in /  1016.8hPa NNE 5.0mph /  8km/h 9.0mph /  14.5km/h 38% 0.00in /  0mm
15:36 55.0 °F /  12.8 °C 28.6 °F /  -1.9 °C 30.03in /  1016.8hPa Calm   8.0mph /  12.9km/h 36% 0.00in /  0mm
15:41 55.1 °F /  12.8 °C 27.3 °F /  -2.6 °C 30.03in /  1016.8hPa NE 5.0mph /  8km/h 11.0mph /  17.7km/h 34% 0.00in /  0mm
15:46 54.9 °F /  12.7 °C 29.8 °F /  -1.2 °C 30.03in /  1016.8hPa NE 5.0mph /  8km/h 7.0mph /  11.3km/h 38% 0.00in /  0mm
15:52 55.0 °F /  12.8 °C 27.9 °F /  -2.3 °C 30.03in /  1016.8hPa ENE 5.0mph /  8km/h 9.0mph /  14.5km/h 35% 0.00in /  0mm
15:57 55.3 °F /  12.9 °C 26.7 °F /  -2.9 °C 30.03in /  1016.8hPa NE 4.0mph /  6.4km/h 10.0mph /  16.1km/h 33% 0.00in /  0mm
16:02 55.2 °F /  12.9 °C 27.3 °F /  -2.6 °C 30.02in /  1016.5hPa NE 4.0mph /  6.4km/h 8.0mph /  12.9km/h 34% 0.00in /  0mm
16:07 55.1 °F /  12.8 °C 28.6 °F /  -1.9 °C 30.02in /  1016.5hPa NE 4.0mph /  6.4km/h 7.0mph /  11.3km/h 36% 0.00in /  0mm
16:12 55.2 °F /  12.9 °C 30.1 °F /  -1.1 °C 30.02in /  1016.5hPa NE 5.0mph /  8km/h 7.0mph /  11.3km/h 38% 0.00in /  0mm
16:17 55.4 °F /  13 °C 28.9 °F /  -1.7 °C 30.02in /  1016.5hPa NE 9.0mph /  14.5km/h 9.0mph /  14.5km/h 36% 0.00in /  0mm
16:22 55.5 °F /  13.1 °C 29.7 °F /  -1.3 °C 30.02in /  1016.5hPa NE 2.0mph /  3.2km/h 8.0mph /  12.9km/h 37% 0.00in /  0mm
16:27 55.6 °F /  13.1 °C 28.4 °F /  -2 °C 30.02in /  1016.5hPa East 7.0mph /  11.3km/h 9.0mph /  14.5km/h 35% 0.00in /  0mm
16:32 55.8 °F /  13.2 °C 29.9 °F /  -1.2 °C 30.02in /  1016.5hPa East 4.0mph /  6.4km/h 6.0mph /  9.7km/h 37% 0.00in /  0mm
16:37 55.9 °F /  13.3 °C 28.0 °F /  -2.2 °C 30.02in /  1016.5hPa ENE 3.0mph /  4.8km/h 5.0mph /  8km/h 34% 0.00in /  0mm
16:43 55.8 °F /  13.2 °C 29.9 °F /  -1.2 °C 30.02in /  1016.5hPa ENE 4.0mph /  6.4km/h 6.0mph /  9.7km/h 37% 0.00in /  0mm
16:48 55.7 °F /  13.2 °C 29.2 °F /  -1.6 °C 30.02in /  1016.5hPa ESE 3.0mph /  4.8km/h 6.0mph /  9.7km/h 36% 0.00in /  0mm
16:53 55.6 °F /  13.1 °C 29.1 °F /  -1.6 °C 30.02in /  1016.5hPa ENE 6.0mph /  9.7km/h 8.0mph /  12.9km/h 36% 0.00in /  0mm
16:58 55.2 °F /  12.9 °C 28.0 °F /  -2.2 °C 30.02in /  1016.5hPa NE 7.0mph /  11.3km/h 8.0mph /  12.9km/h 35% 0.00in /  0mm
17:03 55.1 °F /  12.8 °C 28.0 °F /  -2.2 °C 30.02in /  1016.5hPa East 5.0mph /  8km/h 7.0mph /  11.3km/h 35% 0.00in /  0mm
17:08 55.3 °F /  12.9 °C 30.1 °F /  -1.1 °C 30.02in /  1016.5hPa NE 2.0mph /  3.2km/h 7.0mph /  11.3km/h 38% 0.00in /  0mm
17:13 55.3 °F /  12.9 °C 29.5 °F /  -1.4 °C 30.01in /  1016.1hPa ENE 6.0mph /  9.7km/h 7.0mph /  11.3km/h 37% 0.00in /  0mm
17:18 55.3 °F /  12.9 °C 29.5 °F /  -1.4 °C 30.01in /  1016.1hPa ENE 6.0mph /  9.7km/h 9.0mph /  14.5km/h 37% 0.00in /  0mm
17:23 55.1 °F /  12.8 °C 28.6 °F /  -1.9 °C 30.02in /  1016.5hPa ENE 3.0mph /  4.8km/h 5.0mph /  8km/h 36% 0.00in /  0mm
17:29 55.1 °F /  12.8 °C 28.6 °F /  -1.9 °C 30.02in /  1016.5hPa NE 6.0mph /  9.7km/h 7.0mph /  11.3km/h 36% 0.00in /  0mm
17:34 55.0 °F /  12.8 °C 29.2 °F /  -1.6 °C 30.02in /  1016.5hPa ENE 2.0mph /  3.2km/h 7.0mph /  11.3km/h 37% 0.00in /  0mm
17:39 55.1 °F /  12.8 °C 29.3 °F /  -1.5 °C 30.02in /  1016.5hPa NE 3.0mph /  4.8km/h 6.0mph /  9.7km/h 37% 0.00in /  0mm
17:44 54.9 °F /  12.7 °C 29.1 °F /  -1.6 °C 30.03in /  1016.8hPa NE 3.0mph /  4.8km/h 4.0mph /  6.4km/h 37% 0.00in /  0mm
17:49 54.7 °F /  12.6 °C 29.0 °F /  -1.7 °C 30.03in /  1016.8hPa NE 3.0mph /  4.8km/h 7.0mph /  11.3km/h 37% 0.00in /  0mm
17:54 54.3 °F /  12.4 °C 28.6 °F /  -1.9 °C 30.02in /  1016.5hPa NE 7.0mph /  11.3km/h 7.0mph /  11.3km/h 37% 0.00in /  0mm
17:59 54.0 °F /  12.2 °C 29.6 °F /  -1.3 °C 30.02in /  1016.5hPa NE 3.0mph /  4.8km/h 5.0mph /  8km/h 39% 0.00in /  0mm
18:04 53.8 °F /  12.1 °C 29.4 °F /  -1.4 °C 30.02in /  1016.5hPa NE 4.0mph /  6.4km/h 7.0mph /  11.3km/h 39% 0.00in /  0mm
18:09 53.6 °F /  12 °C 29.9 °F /  -1.2 °C 30.02in /  1016.5hPa NE 3.0mph /  4.8km/h 6.0mph /  9.7km/h 40% 0.00in /  0mm
18:14 53.3 °F /  11.8 °C 29.6 °F /  -1.3 °C 30.02in /  1016.5hPa NE 3.0mph /  4.8km/h 6.0mph /  9.7km/h 40% 0.00in /  0mm
18:19 53.2 °F /  11.8 °C 29.5 °F /  -1.4 °C 30.01in /  1016.1hPa NE 3.0mph /  4.8km/h 5.0mph /  8km/h 40% 0.00in /  0mm
18:24 53.0 °F /  11.7 °C 29.3 °F /  -1.5 °C 30.01in /  1016.1hPa NE 6.0mph /  9.7km/h 8.0mph /  12.9km/h 40% 0.00in /  0mm
18:29 52.5 °F /  11.4 °C 28.9 °F /  -1.7 °C 30.01in /  1016.1hPa NE 3.0mph /  4.8km/h 7.0mph /  11.3km/h 40% 0.00in /  0mm
18:34 51.9 °F /  11.1 °C 29.0 °F /  -1.7 °C 30.01in /  1016.1hPa NE 3.0mph /  4.8km/h 6.0mph /  9.7km/h 41% 0.00in /  0mm
18:39 51.4 °F /  10.8 °C 29.1 °F /  -1.6 °C 30.01in /  1016.1hPa ENE 5.0mph /  8km/h 5.0mph /  8km/h 42% 0.00in /  0mm
18:44 51.1 °F /  10.6 °C 28.8 °F /  -1.8 °C 30.01in /  1016.1hPa NE 3.0mph /  4.8km/h 6.0mph /  9.7km/h 42% 0.00in /  0mm
18:49 50.8 °F /  10.4 °C 29.1 °F /  -1.6 °C 30.01in /  1016.1hPa NE 3.0mph /  4.8km/h 6.0mph /  9.7km/h 43% 0.00in /  0mm
18:54 50.6 °F /  10.3 °C 29.0 °F /  -1.7 °C 30.02in /  1016.5hPa ENE 3.0mph /  4.8km/h 5.0mph /  8km/h 43% 0.00in /  0mm
18:59 50.3 °F /  10.2 °C 29.2 °F /  -1.6 °C 30.02in /  1016.5hPa ENE 2.0mph /  3.2km/h 5.0mph /  8km/h 44% 0.00in /  0mm
19:04 50.0 °F /  10 °C 29.0 °F /  -1.7 °C 30.02in /  1016.5hPa ENE 1.0mph /  1.6km/h 5.0mph /  8km/h 44% 0.00in /  0mm
19:09 49.8 °F /  9.9 °C 29.3 °F /  -1.5 °C 30.02in /  1016.5hPa NE 2.0mph /  3.2km/h 3.0mph /  4.8km/h 45% 0.00in /  0mm
19:14 49.6 °F /  9.8 °C 29.1 °F /  -1.6 °C 30.02in /  1016.5hPa ENE 3.0mph /  4.8km/h 4.0mph /  6.4km/h 45% 0.00in /  0mm
19:19 49.4 °F /  9.7 °C 29.0 °F /  -1.7 °C 30.02in /  1016.5hPa NE 2.0mph /  3.2km/h 4.0mph /  6.4km/h 45% 0.00in /  0mm
19:24 49.2 °F /  9.6 °C 28.8 °F /  -1.8 °C 30.02in /  1016.5hPa NE 2.0mph /  3.2km/h 5.0mph /  8km/h 45% 0.00in /  0mm
19:29 48.9 °F /  9.4 °C 29.0 °F /  -1.7 °C 30.02in /  1016.5hPa NE 2.0mph /  3.2km/h 4.0mph /  6.4km/h 46% 0.00in /  0mm
19:34 48.7 °F /  9.3 °C 28.9 °F /  -1.7 °C 30.01in /  1016.1hPa ENE 2.0mph /  3.2km/h 4.0mph /  6.4km/h 46% 0.00in /  0mm
19:39 48.5 °F /  9.2 °C 29.2 °F /  -1.6 °C 30.02in /  1016.5hPa NE 3.0mph /  4.8km/h 4.0mph /  6.4km/h 47% 0.00in /  0mm
19:44 48.4 °F /  9.1 °C 29.1 °F /  -1.6 °C 30.02in /  1016.5hPa NE 4.0mph /  6.4km/h 4.0mph /  6.4km/h 47% 0.00in /  0mm
19:49 48.0 °F /  8.9 °C 29.3 °F /  -1.5 °C 30.02in /  1016.5hPa NE 4.0mph /  6.4km/h 4.0mph /  6.4km/h 48% 0.00in /  0mm
19:54 47.5 °F /  8.6 °C 28.8 °F /  -1.8 °C 30.02in /  1016.5hPa NNE 2.0mph /  3.2km/h 3.0mph /  4.8km/h 48% 0.00in /  0mm
19:59 46.9 °F /  8.3 °C 28.8 °F /  -1.8 °C 30.02in /  1016.5hPa NNE 1.0mph /  1.6km/h 3.0mph /  4.8km/h 49% 0.00in /  0mm
20:04 46.7 °F /  8.2 °C 29.1 °F /  -1.6 °C 30.02in /  1016.5hPa NNE 2.0mph /  3.2km/h 3.0mph /  4.8km/h 50% 0.00in /  0mm
20:10 46.6 °F /  8.1 °C 29.0 °F /  -1.7 °C 30.02in /  1016.5hPa NNE 2.0mph /  3.2km/h 4.0mph /  6.4km/h 50% 0.00in /  0mm
20:15 46.4 °F /  8 °C 29.3 °F /  -1.5 °C 30.01in /  1016.1hPa NNE 2.0mph /  3.2km/h 4.0mph /  6.4km/h 51% 0.00in /  0mm
20:20 46.1 °F /  7.8 °C 29.0 °F /  -1.7 °C 30.02in /  1016.5hPa NNE 2.0mph /  3.2km/h 4.0mph /  6.4km/h 51% 0.00in /  0mm
20:25 45.9 °F /  7.7 °C 29.3 °F /  -1.5 °C 30.02in /  1016.5hPa NE 3.0mph /  4.8km/h 3.0mph /  4.8km/h 52% 0.00in /  0mm
20:30 45.7 °F /  7.6 °C 29.1 °F /  -1.6 °C 30.02in /  1016.5hPa NNE 2.0mph /  3.2km/h 3.0mph /  4.8km/h 52% 0.00in /  0mm
20:35 45.7 °F /  7.6 °C 29.1 °F /  -1.6 °C 30.02in /  1016.5hPa NNE 2.0mph /  3.2km/h 3.0mph /  4.8km/h 52% 0.00in /  0mm
20:40 45.6 °F /  7.6 °C 29.5 °F /  -1.4 °C 30.02in /  1016.5hPa NE 2.0mph /  3.2km/h 5.0mph /  8km/h 53% 0.00in /  0mm
20:45 45.3 °F /  7.4 °C 29.2 °F /  -1.6 °C 30.01in /  1016.1hPa NNE 4.0mph /  6.4km/h 5.0mph /  8km/h 53% 0.00in /  0mm
20:50 45.2 °F /  7.3 °C 29.1 °F /  -1.6 °C 30.01in /  1016.1hPa NE 2.0mph /  3.2km/h 5.0mph /  8km/h 53% 0.00in /  0mm
20:55 45.3 °F /  7.4 °C 29.2 °F /  -1.6 °C 30.01in /  1016.1hPa NE 3.0mph /  4.8km/h 4.0mph /  6.4km/h 53% 0.00in /  0mm
21:00 45.4 °F /  7.4 °C 29.3 °F /  -1.5 °C 30.01in /  1016.1hPa NNE 3.0mph /  4.8km/h 5.0mph /  8km/h 53% 0.00in /  0mm
21:05 45.3 °F /  7.4 °C 29.2 °F /  -1.6 °C 30.01in /  1016.1hPa NE 3.0mph /  4.8km/h 7.0mph /  11.3km/h 53% 0.00in /  0mm
21:10 45.2 °F /  7.3 °C 29.1 °F /  -1.6 °C 30.01in /  1016.1hPa NNE 3.0mph /  4.8km/h 5.0mph /  8km/h 53% 0.00in /  0mm
21:15 45.0 °F /  7.2 °C 28.9 °F /  -1.7 °C 30.01in /  1016.1hPa NE 4.0mph /  6.4km/h 5.0mph /  8km/h 53% 0.00in /  0mm
21:20 45.0 °F /  7.2 °C 28.9 °F /  -1.7 °C 30.01in /  1016.1hPa NNE 4.0mph /  6.4km/h 5.0mph /  8km/h 53% 0.00in /  0mm
21:25 44.9 °F /  7.2 °C 28.8 °F /  -1.8 °C 30.01in /  1016.1hPa NNE 4.0mph /  6.4km/h 6.0mph /  9.7km/h 53% 0.00in /  0mm
21:30 44.7 °F /  7.1 °C 28.6 °F /  -1.9 °C 30.01in /  1016.1hPa NE 3.0mph /  4.8km/h 5.0mph /  8km/h 53% 0.00in /  0mm
21:35 44.5 °F /  6.9 °C 28.5 °F /  -1.9 °C 30.01in /  1016.1hPa NE 4.0mph /  6.4km/h 5.0mph /  8km/h 53% 0.00in /  0mm
21:40 44.6 °F /  7 °C 28.5 °F /  -1.9 °C 30.01in /  1016.1hPa NE 4.0mph /  6.4km/h 4.0mph /  6.4km/h 53% 0.00in /  0mm
21:45 44.5 °F /  6.9 °C 28.5 °F /  -1.9 °C 30.01in /  1016.1hPa NNE 3.0mph /  4.8km/h 5.0mph /  8km/h 53% 0.00in /  0mm
21:50 44.4 °F /  6.9 °C 28.4 °F /  -2 °C 30.01in /  1016.1hPa NE 4.0mph /  6.4km/h 5.0mph /  8km/h 53% 0.00in /  0mm
21:55 44.2 °F /  6.8 °C 28.6 °F /  -1.9 °C 30.01in /  1016.1hPa NE 4.0mph /  6.4km/h 5.0mph /  8km/h 54% 0.00in /  0mm
22:00 44.0 °F /  6.7 °C 28.4 °F /  -2 °C 30.01in /  1016.1hPa NE 3.0mph /  4.8km/h 4.0mph /  6.4km/h 54% 0.00in /  0mm
22:05 44.0 °F /  6.7 °C 28.4 °F /  -2 °C 30.01in /  1016.1hPa NE 2.0mph /  3.2km/h 4.0mph /  6.4km/h 54% 0.00in /  0mm
22:11 44.0 °F /  6.7 °C 28.4 °F /  -2 °C 30.01in /  1016.1hPa ENE 4.0mph /  6.4km/h 5.0mph /  8km/h 54% 0.00in /  0mm
22:16 44.1 °F /  6.7 °C 28.5 °F /  -1.9 °C 30.01in /  1016.1hPa NE 3.0mph /  4.8km/h 6.0mph /  9.7km/h 54% 0.00in /  0mm
22:21 44.1 °F /  6.7 °C 28.5 °F /  -1.9 °C 30.01in /  1016.1hPa ENE 3.0mph /  4.8km/h 6.0mph /  9.7km/h 54% 0.00in /  0mm
22:26 43.9 °F /  6.6 °C 28.4 °F /  -2 °C 30.01in /  1016.1hPa NE 4.0mph /  6.4km/h 4.0mph /  6.4km/h 54% 0.00in /  0mm
22:31 43.7 °F /  6.5 °C 28.6 °F /  -1.9 °C 30.01in /  1016.1hPa NE 3.0mph /  4.8km/h 6.0mph /  9.7km/h 55% 0.00in /  0mm
22:36 43.6 °F /  6.4 °C 28.5 °F /  -1.9 °C 30.01in /  1016.1hPa NE 4.0mph /  6.4km/h 7.0mph /  11.3km/h 55% 0.00in /  0mm
22:41 43.4 °F /  6.3 °C 28.3 °F /  -2.1 °C 30.00in /  1015.8hPa NE 6.0mph /  9.7km/h 6.0mph /  9.7km/h 55% 0.00in /  0mm
22:46 43.3 °F /  6.3 °C 28.2 °F /  -2.1 °C 30.00in /  1015.8hPa NE 4.0mph /  6.4km/h 6.0mph /  9.7km/h 55% 0.00in /  0mm
22:51 43.2 °F /  6.2 °C 28.1 °F /  -2.2 °C 30.00in /  1015.8hPa NE 6.0mph /  9.7km/h 6.0mph /  9.7km/h 55% 0.00in /  0mm
22:56 43.1 °F /  6.2 °C 28.5 °F /  -1.9 °C 29.99in /  1015.5hPa NE 3.0mph /  4.8km/h 7.0mph /  11.3km/h 56% 0.00in /  0mm
23:01 43.3 °F /  6.3 °C 28.2 °F /  -2.1 °C 29.99in /  1015.5hPa NE 6.0mph /  9.7km/h 7.0mph /  11.3km/h 55% 0.00in /  0mm
23:06 43.3 °F /  6.3 °C 28.2 °F /  -2.1 °C 29.99in /  1015.5hPa ENE 4.0mph /  6.4km/h 7.0mph /  11.3km/h 55% 0.00in /  0mm
23:11 43.3 °F /  6.3 °C 28.2 °F /  -2.1 °C 29.99in /  1015.5hPa NE 4.0mph /  6.4km/h 6.0mph /  9.7km/h 55% 0.00in /  0mm
23:17 42.9 °F /  6.1 °C 28.3 °F /  -2.1 °C 29.98in /  1015.1hPa NNE 5.0mph /  8km/h 6.0mph /  9.7km/h 56% 0.00in /  0mm
23:22 42.8 °F /  6 °C 28.2 °F /  -2.1 °C 29.98in /  1015.1hPa NE 3.0mph /  4.8km/h 6.0mph /  9.7km/h 56% 0.00in /  0mm
23:27 42.7 °F /  5.9 °C 28.5 °F /  -1.9 °C 29.98in /  1015.1hPa NE 5.0mph /  8km/h 6.0mph /  9.7km/h 57% 0.00in /  0mm
23:32 42.7 °F /  5.9 °C 28.1 °F /  -2.2 °C 29.97in /  1014.8hPa NE 6.0mph /  9.7km/h 7.0mph /  11.3km/h 56% 0.00in /  0mm
23:37 42.6 °F /  5.9 °C 28.0 °F /  -2.2 °C 29.97in /  1014.8hPa NE 3.0mph /  4.8km/h 6.0mph /  9.7km/h 56% 0.00in /  0mm
23:42 42.5 °F /  5.8 °C 27.9 °F /  -2.3 °C 29.97in /  1014.8hPa NE 4.0mph /  6.4km/h 6.0mph /  9.7km/h 56% 0.00in /  0mm
23:47 42.4 °F /  5.8 °C 28.3 °F /  -2.1 °C 29.96in /  1014.4hPa NE 4.0mph /  6.4km/h 6.0mph /  9.7km/h 57% 0.00in /  0mm
23:52 42.3 °F /  5.7 °C 28.2 °F /  -2.1 °C 29.97in /  1014.8hPa NNE 4.0mph /  6.4km/h 7.0mph /  11.3km/h 57% 0.00in /  0mm
23:57 42.3 °F /  5.7 °C 28.2 °F /  -2.1 °C 29.97in /  1014.8hPa NE 4.0mph /  6.4km/h 7.0mph /  11.3km/h 57% 0.00in /  0mm
Compliments of Weather Underground